createdAt,value
2022-09-15T00:00:17.067Z,100.00
2022-09-15T00:02:43.775Z,100.00
2022-09-15T00:05:10.422Z,100.00
2022-09-15T00:07:36.875Z,100.00
2022-09-15T00:10:04.530Z,100.00
2022-09-15T00:12:30.820Z,100.00
2022-09-15T00:14:57.087Z,100.00
2022-09-15T00:17:23.425Z,100.00
2022-09-15T00:19:49.667Z,100.00
2022-09-15T00:22:16.028Z,100.00
2022-09-15T00:24:42.347Z,100.00
2022-09-15T00:27:08.617Z,100.00
2022-09-15T00:29:35.816Z,100.00
2022-09-15T00:32:02.176Z,100.00
2022-09-15T00:34:28.582Z,100.00
2022-09-15T00:36:54.842Z,100.00
2022-09-15T00:39:21.213Z,100.00
2022-09-15T00:41:47.456Z,100.00
2022-09-15T00:44:16.439Z,100.00
2022-09-15T00:46:46.914Z,100.00
2022-09-15T00:49:17.990Z,100.00
2022-09-15T00:51:47.032Z,100.00
2022-09-15T00:54:19.440Z,100.00
2022-09-15T00:56:47.331Z,100.00
2022-09-15T00:59:16.929Z,100.00
2022-09-15T01:01:43.835Z,100.00
2022-09-15T01:04:10.760Z,100.00
2022-09-15T01:06:39.156Z,100.00
2022-09-15T01:09:23.210Z,100.00
2022-09-15T01:11:49.844Z,100.00
2022-09-15T01:14:16.201Z,100.00
2022-09-15T01:16:42.487Z,100.00
2022-09-15T01:19:08.799Z,100.00
2022-09-15T01:21:45.644Z,100.00
2022-09-15T01:24:38.455Z,100.00
2022-09-15T01:27:40.570Z,100.00
2022-09-15T01:30:11.259Z,100.00
2022-09-15T01:33:04.233Z,100.00
2022-09-15T01:35:31.929Z,100.00
2022-09-15T01:38:02.325Z,100.00
2022-09-15T01:40:31.994Z,100.00
2022-09-15T01:42:59.962Z,100.00
2022-09-15T01:45:29.050Z,100.00
2022-09-15T01:47:57.590Z,100.00
2022-09-15T01:50:31.103Z,100.00
2022-09-15T01:53:00.208Z,100.00
2022-09-15T01:55:33.635Z,100.00
2022-09-15T01:57:59.939Z,100.00
2022-09-15T02:00:26.211Z,100.00
2022-09-15T02:02:58.978Z,100.00
2022-09-15T02:05:30.128Z,100.00
2022-09-15T02:07:56.945Z,100.00
2022-09-15T02:10:29.599Z,100.00
2022-09-15T02:12:59.863Z,100.00
2022-09-15T02:15:33.291Z,100.00
2022-09-15T02:18:01.202Z,100.00
2022-09-15T02:20:42.455Z,100.00
2022-09-15T02:23:18.822Z,100.00
2022-09-15T02:25:48.135Z,100.00
2022-09-15T02:28:14.840Z,100.00
2022-09-15T02:41:06.420Z,100.00
2022-09-15T02:43:33.694Z,100.00
2022-09-15T02:46:00.465Z,100.00
2022-09-15T02:48:26.785Z,100.00
2022-09-15T02:50:53.064Z,100.00
2022-09-15T02:53:19.329Z,100.00
2022-09-15T02:55:45.585Z,100.00
2022-09-15T02:58:11.843Z,100.00
2022-09-15T03:00:39.132Z,100.00
2022-09-15T03:03:05.403Z,100.00
2022-09-15T03:05:31.690Z,100.00
2022-09-15T03:07:58.030Z,100.00
2022-09-15T03:10:24.744Z,100.00
2022-09-15T03:12:51.909Z,100.00
2022-09-15T03:15:19.480Z,100.00
2022-09-15T03:17:46.889Z,100.00
2022-09-15T03:20:15.374Z,100.00
2022-09-15T03:22:41.959Z,100.00
2022-09-15T03:25:09.772Z,100.00
2022-09-15T03:27:36.453Z,100.00
2022-09-15T03:30:04.183Z,100.00
2022-09-15T03:32:30.550Z,100.00
2022-09-15T03:34:58.550Z,100.00
2022-09-15T03:37:25.216Z,100.00
2022-09-15T03:39:51.488Z,100.00
2022-09-15T03:42:17.931Z,100.00
2022-09-15T03:44:44.176Z,100.00
2022-09-15T03:47:10.534Z,100.00
2022-09-15T03:49:36.839Z,100.00
2022-09-15T03:52:03.105Z,100.00
2022-09-15T03:54:29.369Z,100.00
2022-09-15T03:56:55.632Z,100.00
2022-09-15T03:59:21.898Z,100.00
2022-09-15T04:01:48.355Z,100.00
2022-09-15T04:04:14.733Z,100.00
2022-09-15T04:06:41.208Z,100.00
2022-09-15T04:09:07.835Z,100.00
2022-09-15T04:11:34.160Z,100.00
2022-09-15T04:14:00.427Z,100.00
2022-09-15T04:16:29.794Z,100.00
2022-09-15T04:18:56.259Z,100.00
2022-09-15T04:21:23.677Z,100.00
2022-09-15T04:23:50.079Z,100.00
2022-09-15T04:26:19.929Z,100.00
2022-09-15T04:28:46.219Z,100.00
2022-09-15T04:31:13.842Z,100.00
2022-09-15T04:33:41.595Z,100.00
2022-09-15T04:36:10.786Z,100.00
2022-09-15T04:38:37.116Z,100.00
2022-09-15T04:41:04.231Z,100.00
2022-09-15T04:43:30.717Z,100.00
2022-09-15T04:45:57.503Z,100.00
2022-09-15T04:48:24.232Z,100.00
2022-09-15T04:50:50.770Z,100.00
2022-09-15T04:53:17.092Z,100.00
2022-09-15T04:55:43.346Z,100.00
2022-09-15T04:58:09.617Z,100.00
2022-09-15T05:00:42.866Z,100.00
2022-09-15T05:03:10.113Z,100.00
2022-09-15T05:05:36.383Z,100.00
2022-09-15T05:08:03.359Z,100.00
2022-09-15T05:10:29.681Z,100.00
2022-09-15T05:12:55.941Z,100.00
2022-09-15T05:15:22.243Z,100.00
2022-09-15T05:17:49.724Z,100.00
2022-09-15T05:20:17.180Z,100.00
2022-09-15T05:22:43.953Z,100.00
2022-09-15T05:25:10.253Z,100.00
2022-09-15T05:27:36.766Z,100.00
2022-09-15T05:30:31.854Z,100.00
2022-09-15T05:32:49.581Z,100.00
2022-09-15T05:35:15.841Z,100.00
2022-09-15T05:37:42.111Z,100.00
2022-09-15T05:40:08.924Z,100.00
2022-09-15T05:42:35.522Z,100.00
2022-09-15T05:45:01.780Z,100.00
2022-09-15T05:47:28.034Z,100.00
2022-09-15T05:49:54.838Z,100.00
2022-09-15T05:52:21.700Z,100.00
2022-09-15T05:54:47.943Z,100.00
2022-09-15T05:57:14.227Z,100.00
2022-09-15T05:59:41.966Z,100.00
2022-09-15T06:02:09.696Z,100.00
2022-09-15T06:04:35.953Z,100.00
2022-09-15T06:07:02.528Z,100.00
2022-09-15T06:09:28.895Z,100.00
2022-09-15T06:11:55.174Z,100.00
2022-09-15T06:14:21.424Z,100.00
2022-09-15T06:16:47.686Z,100.00
2022-09-15T06:19:14.023Z,100.00
2022-09-15T06:21:40.301Z,100.00
2022-09-15T06:24:07.037Z,100.00
2022-09-15T06:26:33.869Z,100.00
2022-09-15T06:29:01.451Z,100.00
2022-09-15T06:31:28.641Z,100.00
2022-09-15T06:33:55.990Z,100.00
2022-09-15T06:36:23.500Z,100.00
2022-09-15T06:38:49.869Z,100.00
2022-09-15T06:41:16.634Z,100.00
2022-09-15T06:43:43.590Z,100.00
2022-09-15T06:46:13.904Z,100.00
2022-09-15T06:48:40.521Z,100.00
2022-09-15T06:51:07.734Z,100.00
2022-09-15T06:53:34.882Z,100.00
2022-09-15T06:56:02.652Z,100.00
2022-09-15T06:58:29.048Z,100.00
2022-09-15T07:00:55.359Z,100.00
2022-09-15T07:03:21.802Z,100.00
2022-09-15T07:05:48.444Z,100.00
2022-09-15T07:08:14.718Z,100.00
2022-09-15T07:10:42.702Z,100.00
2022-09-15T07:13:09.062Z,100.00
2022-09-15T07:15:35.357Z,100.00
2022-09-15T07:18:01.637Z,100.00
2022-09-15T07:20:27.943Z,100.00
2022-09-15T07:22:54.300Z,100.00
2022-09-15T07:25:20.547Z,100.00
2022-09-15T07:27:46.790Z,100.00
2022-09-15T07:30:13.732Z,100.00
2022-09-15T07:32:40.753Z,100.00
2022-09-15T07:35:07.193Z,100.00
2022-09-15T07:37:33.596Z,100.00
2022-09-15T07:39:59.962Z,100.00
2022-09-15T07:42:26.333Z,100.00
2022-09-15T07:44:52.586Z,100.00
2022-09-15T07:47:18.863Z,100.00
2022-09-15T07:49:45.643Z,100.00
2022-09-15T07:52:12.568Z,100.00
2022-09-15T07:54:38.811Z,100.00
2022-09-15T07:57:06.382Z,100.00
2022-09-15T07:59:33.024Z,100.00
2022-09-15T08:01:59.286Z,100.00
2022-09-15T08:04:25.603Z,100.00
2022-09-15T08:06:52.728Z,100.00
2022-09-15T08:09:19.042Z,100.00
2022-09-15T08:11:45.373Z,100.00
2022-09-15T08:14:11.629Z,100.00
2022-09-15T08:16:38.257Z,100.00
2022-09-15T08:19:04.644Z,100.00
2022-09-15T08:21:30.903Z,100.00
2022-09-15T08:23:58.457Z,100.00
2022-09-15T08:26:26.005Z,100.00
2022-09-15T08:28:52.419Z,100.00
2022-09-15T08:31:18.950Z,100.00
2022-09-15T08:33:49.743Z,100.00
2022-09-15T08:36:16.011Z,100.00
2022-09-15T08:38:44.086Z,100.00
2022-09-15T08:41:22.585Z,100.00
2022-09-15T08:43:54.903Z,100.00
2022-09-15T08:46:23.782Z,100.00
2022-09-15T08:48:52.915Z,100.00
2022-09-15T08:51:23.113Z,100.00
2022-09-15T08:53:53.491Z,100.00
2022-09-15T08:56:20.977Z,100.00
2022-09-15T08:58:47.272Z,100.00
2022-09-15T09:01:32.298Z,100.00
2022-09-15T09:03:58.644Z,100.00
2022-09-15T09:06:57.430Z,100.00
2022-09-15T09:09:42.293Z,100.00
2022-09-15T09:12:27.499Z,100.00
2022-09-15T09:14:53.747Z,100.00
2022-09-15T09:17:27.162Z,100.00
2022-09-15T09:19:56.377Z,100.00
2022-09-15T09:22:30.327Z,100.00
2022-09-15T09:24:58.071Z,100.00
2022-09-15T09:27:29.695Z,100.00
2022-09-15T09:30:06.890Z,100.00
2022-09-15T09:32:52.045Z,100.00
2022-09-15T09:35:39.660Z,100.00
2022-09-15T09:38:07.732Z,100.00
2022-09-15T09:40:34.214Z,100.00
2022-09-15T09:43:00.771Z,100.00
2022-09-15T09:45:27.028Z,100.00
2022-09-15T09:47:59.480Z,100.00
2022-09-15T09:50:43.507Z,100.00
2022-09-15T09:53:27.181Z,100.00
2022-09-15T09:55:55.125Z,100.00
2022-09-15T09:58:22.992Z,100.00
2022-09-15T10:00:49.569Z,100.00
2022-09-15T10:03:17.399Z,100.00
2022-09-15T10:05:44.599Z,100.00
2022-09-15T10:08:17.770Z,100.00
2022-09-15T10:10:51.720Z,100.00
2022-09-15T10:13:18.329Z,100.00
2022-09-15T10:15:50.291Z,100.00
2022-09-15T10:18:36.969Z,100.00
2022-09-15T10:21:04.870Z,100.00
2022-09-15T10:23:32.458Z,100.00
2022-09-15T10:26:19.053Z,100.00
2022-09-15T10:29:05.259Z,100.00
2022-09-15T10:31:32.598Z,100.00
2022-09-15T10:34:10.387Z,100.00
2022-09-15T10:36:36.714Z,100.00
2022-09-15T10:39:20.916Z,100.00
2022-09-15T10:41:58.268Z,100.00
2022-09-15T10:44:47.522Z,100.00
2022-09-15T10:47:26.052Z,100.00
2022-09-15T10:49:52.305Z,100.00
2022-09-15T10:52:37.363Z,100.00
2022-09-15T10:55:15.790Z,100.00
2022-09-15T10:57:48.136Z,100.00
2022-09-15T11:00:19.184Z,100.00
2022-09-15T11:02:56.774Z,95.44
2022-09-15T11:05:34.052Z,78.41
2022-09-15T11:08:12.731Z,70.27
2022-09-15T11:10:50.958Z,66.29
2022-09-15T11:13:27.297Z,59.28
2022-09-15T11:16:07.072Z,59.99
2022-09-15T11:18:36.130Z,51.18
2022-09-15T11:21:10.731Z,51.05
2022-09-15T11:23:42.880Z,54.62
2022-09-15T11:26:15.864Z,99.30
2022-09-15T11:28:45.800Z,100.00
2022-09-15T11:31:18.085Z,100.00
2022-09-15T11:34:03.135Z,100.00
2022-09-15T11:36:39.293Z,100.00
2022-09-15T11:39:12.357Z,100.00
2022-09-15T11:41:38.589Z,100.00
2022-09-15T11:44:16.078Z,100.00
2022-09-15T11:46:57.363Z,100.00
2022-09-15T11:49:27.020Z,100.00
2022-09-15T11:51:57.741Z,100.00
2022-09-15T11:54:31.540Z,100.00
2022-09-15T11:56:58.661Z,100.00
2022-09-15T11:59:46.881Z,100.00
2022-09-15T12:02:31.572Z,100.00
2022-09-15T12:05:19.728Z,100.00
2022-09-15T12:07:53.079Z,100.00
2022-09-15T12:10:22.986Z,100.00
2022-09-15T12:12:51.405Z,100.00
2022-09-15T12:15:27.000Z,100.00
2022-09-15T12:18:06.716Z,100.00
2022-09-15T12:20:53.344Z,100.00
2022-09-15T12:23:22.750Z,100.00
2022-09-15T12:26:05.000Z,100.00
2022-09-15T12:28:50.906Z,100.00
2022-09-15T12:31:26.350Z,100.00
2022-09-15T12:34:04.037Z,100.00
2022-09-15T12:36:44.221Z,100.00
2022-09-15T12:39:28.862Z,100.00
2022-09-15T12:42:01.237Z,90.60
2022-09-15T12:44:38.238Z,83.17
2022-09-15T12:47:07.081Z,76.33
2022-09-15T12:49:35.058Z,77.58
2022-09-15T12:52:03.415Z,79.03
2022-09-15T12:54:31.312Z,78.76
2022-09-15T12:56:58.040Z,73.29
2022-09-15T12:59:25.706Z,75.24
2022-09-15T13:01:53.501Z,73.56
2022-09-15T13:04:46.302Z,73.29
2022-09-15T13:07:15.533Z,72.06
2022-09-15T13:09:44.964Z,74.95
2022-09-15T13:12:15.124Z,68.03
2022-09-15T13:14:44.955Z,67.54
2022-09-15T13:17:16.826Z,68.32
2022-09-15T13:19:46.586Z,72.62
2022-09-15T13:22:12.911Z,74.30
2022-09-15T13:24:45.811Z,76.10
2022-09-15T13:27:13.228Z,85.81
2022-09-15T13:29:44.500Z,83.32
2022-09-15T13:32:19.387Z,80.61
2022-09-15T13:35:04.611Z,86.29
2022-09-15T13:40:35.115Z,88.88
2022-09-15T13:43:04.901Z,99.63
2022-09-15T13:45:49.787Z,93.95
2022-09-15T13:48:28.448Z,99.50
2022-09-15T13:51:18.185Z,100.00
2022-09-15T13:53:47.138Z,100.00
2022-09-15T13:56:18.818Z,100.00
2022-09-15T13:59:06.807Z,100.00
2022-09-15T14:01:34.393Z,100.00
2022-09-15T14:04:17.537Z,100.00
2022-09-15T14:06:57.096Z,100.00
2022-09-15T14:09:29.638Z,100.00
2022-09-15T14:11:57.829Z,100.00
2022-09-15T14:14:26.826Z,100.00
2022-09-15T14:16:54.273Z,95.98
2022-09-15T14:19:27.660Z,100.00
2022-09-15T14:21:58.275Z,97.99
2022-09-15T14:24:29.995Z,80.02
2022-09-15T14:27:01.357Z,69.16
2022-09-15T14:29:27.773Z,68.31
2022-09-15T14:31:59.625Z,67.27
2022-09-15T14:34:28.321Z,61.35
2022-09-15T14:37:03.170Z,64.23
2022-09-15T14:39:29.933Z,61.79
2022-09-15T14:41:56.851Z,61.38
2022-09-15T14:47:23.032Z,62.21
2022-09-15T14:49:49.684Z,62.27
2022-09-15T14:52:25.547Z,61.43
2022-09-15T14:54:55.954Z,63.25
2022-09-15T14:57:27.556Z,64.76
2022-09-15T14:59:59.653Z,68.90
2022-09-15T15:02:46.535Z,73.91
2022-09-15T15:05:17.628Z,86.62
2022-09-15T15:07:44.237Z,92.04
2022-09-15T15:10:19.757Z,99.61
2022-09-15T15:12:47.899Z,100.00
2022-09-15T15:15:15.647Z,100.00
2022-09-15T15:17:45.243Z,100.00
2022-09-15T15:20:11.538Z,100.00
2022-09-15T15:22:38.793Z,100.00
2022-09-15T15:25:21.891Z,100.00
2022-09-15T15:27:55.267Z,100.00
2022-09-15T15:30:40.417Z,100.00
2022-09-15T15:33:19.463Z,100.00
2022-09-15T15:35:46.783Z,100.00
2022-09-15T15:38:17.258Z,100.00
2022-09-15T15:40:44.587Z,100.00
2022-09-15T15:43:13.627Z,100.00
2022-09-15T15:45:57.742Z,100.00
2022-09-15T15:48:25.174Z,100.00
2022-09-15T15:50:51.985Z,100.00
2022-09-15T15:53:18.429Z,100.00
2022-09-15T15:55:44.801Z,100.00
2022-09-15T15:58:11.893Z,100.00
2022-09-15T16:00:47.317Z,100.00
2022-09-15T16:03:14.560Z,100.00
2022-09-15T16:05:42.671Z,100.00
2022-09-15T16:08:20.563Z,100.00
2022-09-15T16:10:47.992Z,100.00
2022-09-15T16:13:18.049Z,100.00
2022-09-15T16:15:44.796Z,100.00
2022-09-15T16:18:11.474Z,100.00
2022-09-15T16:20:38.104Z,100.00
2022-09-15T16:23:04.588Z,100.00
2022-09-15T16:25:34.041Z,100.00
2022-09-15T16:28:00.665Z,100.00
2022-09-15T16:30:27.326Z,100.00
2022-09-15T16:32:53.676Z,100.00
2022-09-15T16:35:23.315Z,100.00
2022-09-15T16:37:49.596Z,100.00
2022-09-15T16:40:17.864Z,100.00
2022-09-15T16:42:45.149Z,100.00
2022-09-15T16:45:17.195Z,100.00
2022-09-15T16:47:43.436Z,100.00
2022-09-15T16:50:10.224Z,100.00
2022-09-15T16:52:36.564Z,100.00
2022-09-15T16:55:09.354Z,100.00
2022-09-15T16:57:35.611Z,100.00
2022-09-15T17:00:03.059Z,100.00
2022-09-15T17:02:29.308Z,100.00
2022-09-15T17:04:55.563Z,100.00
2022-09-15T17:07:21.804Z,100.00
2022-09-15T17:09:49.777Z,100.00
2022-09-15T17:12:16.076Z,100.00
2022-09-15T17:14:42.423Z,100.00
2022-09-15T17:17:22.477Z,100.00
2022-09-15T17:19:48.972Z,100.00
2022-09-15T17:22:15.214Z,100.00
2022-09-15T17:24:41.651Z,100.00
2022-09-15T17:27:07.900Z,100.00
2022-09-15T17:29:34.187Z,100.00
2022-09-15T17:32:00.483Z,100.00
2022-09-15T17:34:26.739Z,100.00
2022-09-15T17:36:52.997Z,100.00
2022-09-15T17:39:19.268Z,100.00
2022-09-15T17:41:47.028Z,100.00
2022-09-15T17:44:13.327Z,100.00
2022-09-15T17:46:39.714Z,100.00
2022-09-15T17:49:06.500Z,100.00
2022-09-15T17:51:32.729Z,100.00
2022-09-15T17:53:58.974Z,100.00
2022-09-15T17:56:25.224Z,100.00
2022-09-15T17:58:51.503Z,100.00
2022-09-15T18:01:17.810Z,100.00
2022-09-15T18:03:44.979Z,100.00
2022-09-15T18:06:11.298Z,100.00
2022-09-15T18:08:37.629Z,100.00
2022-09-15T18:11:04.464Z,100.00
2022-09-15T18:13:31.151Z,100.00
2022-09-15T18:15:58.374Z,100.00
2022-09-15T18:18:25.875Z,100.00
2022-09-15T18:20:53.708Z,100.00
2022-09-15T18:23:21.403Z,100.00
2022-09-15T18:25:47.912Z,100.00
2022-09-15T18:28:15.300Z,100.00
2022-09-15T18:30:42.465Z,100.00
2022-09-15T18:33:16.514Z,100.00
2022-09-15T18:35:43.384Z,100.00
2022-09-15T18:38:10.282Z,100.00
2022-09-15T18:40:36.632Z,100.00
2022-09-15T18:43:02.994Z,100.00
2022-09-15T18:45:29.264Z,100.00
2022-09-15T18:47:55.675Z,100.00
2022-09-15T18:50:23.165Z,100.00
2022-09-15T18:52:49.972Z,100.00
2022-09-15T18:55:18.148Z,100.00
2022-09-15T18:57:45.001Z,100.00
2022-09-15T19:00:14.218Z,100.00
2022-09-15T19:02:40.741Z,100.00
2022-09-15T19:05:07.797Z,100.00
2022-09-15T19:07:34.276Z,100.00
2022-09-15T19:10:01.836Z,100.00
2022-09-15T19:12:28.446Z,100.00
2022-09-15T19:14:54.799Z,100.00
2022-09-15T19:17:21.403Z,100.00
2022-09-15T19:19:50.074Z,100.00
2022-09-15T19:22:16.320Z,100.00
2022-09-15T19:24:43.149Z,100.00
2022-09-15T19:27:09.753Z,100.00
2022-09-15T19:29:36.971Z,100.00
2022-09-15T19:32:05.326Z,100.00
2022-09-15T19:34:32.281Z,100.00
2022-09-15T19:37:02.054Z,100.00
2022-09-15T19:39:28.561Z,100.00
2022-09-15T19:41:54.826Z,100.00
2022-09-15T19:44:21.251Z,100.00
2022-09-15T19:46:47.527Z,100.00
2022-09-15T19:49:14.001Z,100.00
2022-09-15T19:51:40.305Z,100.00
2022-09-15T19:54:07.006Z,100.00
2022-09-15T19:56:34.301Z,100.00
2022-09-15T19:59:00.844Z,100.00
2022-09-15T20:01:28.605Z,100.00
2022-09-15T20:03:55.917Z,100.00
2022-09-15T20:06:22.768Z,100.00
2022-09-15T20:08:52.675Z,100.00
2022-09-15T20:11:19.534Z,100.00
2022-09-15T20:13:46.207Z,100.00
2022-09-15T20:16:17.599Z,100.00
2022-09-15T20:18:46.605Z,100.00
2022-09-15T20:21:32.405Z,100.00
2022-09-15T20:24:05.033Z,100.00
2022-09-15T20:26:31.680Z,100.00
2022-09-15T20:29:02.033Z,100.00
2022-09-15T20:31:29.031Z,100.00
2022-09-15T20:33:55.570Z,100.00
2022-09-15T20:36:29.815Z,100.00
2022-09-15T20:38:56.689Z,100.00
2022-09-15T20:41:24.299Z,100.00
2022-09-15T20:43:51.216Z,100.00
2022-09-15T20:46:19.386Z,100.00
2022-09-15T20:48:46.536Z,100.00
2022-09-15T20:51:17.545Z,100.00
2022-09-15T20:53:45.463Z,100.00
2022-09-15T20:56:12.732Z,100.00
2022-09-15T20:58:39.537Z,100.00
2022-09-15T21:01:10.189Z,100.00
2022-09-15T21:03:37.409Z,100.00
2022-09-15T21:06:05.254Z,100.00
2022-09-15T21:08:31.943Z,100.00
2022-09-15T21:10:59.317Z,100.00
2022-09-15T21:13:28.727Z,100.00
2022-09-15T21:15:59.217Z,100.00
2022-09-15T21:18:26.200Z,100.00
2022-09-15T21:20:59.565Z,100.00
2022-09-15T21:23:26.489Z,100.00
2022-09-15T21:26:01.173Z,100.00
2022-09-15T21:28:28.590Z,100.00
2022-09-15T21:31:00.634Z,100.00
2022-09-15T21:33:27.121Z,100.00
2022-09-15T21:36:01.055Z,100.00
2022-09-15T21:38:27.330Z,100.00
2022-09-15T21:40:53.599Z,100.00
2022-09-15T21:43:19.864Z,100.00
2022-09-15T21:45:46.163Z,100.00
2022-09-15T21:48:14.138Z,100.00
2022-09-15T21:50:53.401Z,100.00
2022-09-15T21:53:20.932Z,100.00
2022-09-15T21:55:50.219Z,100.00
2022-09-15T21:58:18.215Z,100.00
2022-09-15T22:00:45.005Z,100.00
2022-09-15T22:03:11.330Z,100.00
2022-09-15T22:05:41.155Z,100.00
2022-09-15T22:08:08.687Z,100.00
2022-09-15T22:10:35.068Z,100.00
2022-09-15T22:13:01.310Z,100.00
2022-09-15T22:15:27.960Z,100.00
2022-09-15T22:17:54.217Z,100.00
2022-09-15T22:20:20.621Z,100.00
2022-09-15T22:22:46.896Z,100.00
2022-09-15T22:25:13.177Z,100.00
2022-09-15T22:27:39.637Z,100.00
2022-09-15T22:30:06.190Z,100.00
2022-09-15T22:32:32.459Z,100.00
2022-09-15T22:34:58.731Z,100.00
2022-09-15T22:37:27.511Z,100.00
2022-09-15T22:40:01.043Z,100.00
2022-09-15T22:42:27.332Z,100.00
2022-09-15T22:44:53.715Z,100.00
2022-09-15T22:47:19.984Z,100.00
2022-09-15T22:49:46.267Z,100.00
2022-09-15T22:52:13.235Z,100.00
2022-09-15T22:54:39.512Z,100.00
2022-09-15T22:57:05.843Z,100.00
2022-09-15T22:59:32.104Z,100.00
2022-09-15T23:01:58.429Z,100.00
2022-09-15T23:04:24.728Z,100.00
2022-09-15T23:06:51.613Z,100.00
2022-09-15T23:09:17.862Z,100.00
2022-09-15T23:11:44.144Z,100.00
2022-09-15T23:14:15.446Z,100.00
2022-09-15T23:16:42.578Z,100.00
2022-09-15T23:19:11.237Z,100.00
2022-09-15T23:21:37.475Z,100.00
2022-09-15T23:24:03.884Z,100.00
2022-09-15T23:26:30.141Z,100.00
2022-09-15T23:28:56.443Z,100.00
2022-09-15T23:31:22.843Z,100.00
2022-09-15T23:33:49.309Z,100.00
2022-09-15T23:36:16.383Z,100.00
2022-09-15T23:38:44.975Z,100.00
2022-09-15T23:41:11.688Z,100.00
2022-09-15T23:43:37.945Z,100.00
2022-09-15T23:46:04.605Z,100.00
2022-09-15T23:48:33.576Z,100.00
2022-09-15T23:51:00.366Z,100.00
2022-09-15T23:53:26.676Z,100.00
2022-09-15T23:55:52.954Z,100.00
2022-09-15T23:58:19.354Z,100.00
